Time;durP1;ratioP1;P1;durP2;ratioP2;P2;SDS_P1;SDS_P2;PMS_P1;PMS_P2;Temp;Humidity;BMP_temperature;BMP_pressure;BME280_temperature;BME280_humidity;BME280_pressure;Samples;Min_cycle;Max_cycle;Signal;HPM_P1;HPM_P2
2023/08/31 00:02:09;;;;;;;5.63;3.10;;;10.50;99.90;;;;;;5069292;28;20074;-83
2023/08/31 00:04:35;;;;;;;5.68;2.80;;;10.40;99.90;;;;;;5067550;28;20045;-83
2023/08/31 00:07:01;;;;;;;4.60;2.90;;;10.50;99.90;;;;;;5073811;28;20457;-82
2023/08/31 00:09:26;;;;;;;5.07;2.70;;;10.50;99.90;;;;;;5068545;28;20397;-82
2023/08/31 00:11:52;;;;;;;4.53;3.10;;;10.40;99.90;;;;;;5082015;28;20040;-83
2023/08/31 00:14:18;;;;;;;8.77;2.90;;;10.50;99.90;;;;;;5070213;28;20060;-83
2023/08/31 00:16:46;;;;;;;5.88;2.88;;;10.50;99.90;;;;;;5069141;28;20049;-83
2023/08/31 00:19:13;;;;;;;7.43;2.30;;;10.50;99.90;;;;;;5067092;28;20413;-83
2023/08/31 00:21:39;;;;;;;4.82;2.42;;;10.50;99.90;;;;;;5077558;28;20054;-83
2023/08/31 00:24:05;;;;;;;8.20;2.58;;;10.60;99.90;;;;;;5068151;28;20126;-83
2023/08/31 00:26:30;;;;;;;4.47;2.60;;;10.60;99.90;;;;;;5069409;28;20040;-83
2023/08/31 00:28:58;;;;;;;4.97;2.80;;;10.70;99.90;;;;;;5074892;28;20041;-83
2023/08/31 00:31:23;;;;;;;7.00;2.63;;;10.80;99.90;;;;;;5076226;28;20044;-83
2023/08/31 00:33:49;;;;;;;7.50;2.55;;;10.80;99.90;;;;;;5068831;28;20048;-83
2023/08/31 00:36:15;;;;;;;8.70;2.80;;;10.90;99.90;;;;;;5080775;28;20040;-83
2023/08/31 00:38:41;;;;;;;5.93;2.63;;;10.90;99.90;;;;;;5074569;28;20041;-82
2023/08/31 00:41:07;;;;;;;6.05;3.20;;;11.00;99.90;;;;;;5067147;28;20056;-82
2023/08/31 00:43:33;;;;;;;5.70;3.13;;;11.00;99.90;;;;;;5072201;28;20508;-82
2023/08/31 00:45:59;;;;;;;3.58;2.88;;;11.10;99.90;;;;;;5079775;28;20056;-83
2023/08/31 00:48:25;;;;;;;6.63;2.95;;;11.10;99.90;;;;;;5076280;28;20103;-83
2023/08/31 00:50:51;;;;;;;8.02;3.25;;;11.10;99.90;;;;;;5088544;28;20160;-83
2023/08/31 00:53:18;;;;;;;6.13;3.30;;;11.00;99.90;;;;;;5082599;28;20044;-83
2023/08/31 00:55:47;;;;;;;5.32;2.70;;;11.10;99.90;;;;;;5085337;28;20104;-83
2023/08/31 00:58:13;;;;;;;5.20;3.08;;;11.00;99.90;;;;;;5082813;28;20040;-83
2023/08/31 01:01:01;;;;;;;6.93;2.90;;;11.00;99.90;;;;;;5072510;28;20052;-83
2023/08/31 01:03:34;;;;;;;4.38;2.60;;;11.00;99.90;;;;;;5074076;28;20052;-83
2023/08/31 01:06:24;;;;;;;6.70;2.50;;;11.00;99.90;;;;;;5083816;28;20097;-83
2023/08/31 01:08:59;;;;;;;6.15;2.70;;;10.90;99.90;;;;;;5075045;28;20448;-83
2023/08/31 01:11:31;;;;;;;3.65;2.28;;;10.90;99.90;;;;;;5069080;28;20204;-83
2023/08/31 01:14:11;;;;;;;5.40;2.30;;;10.90;99.90;;;;;;5067458;28;20047;-84
2023/08/31 01:16:41;;;;;;;6.03;2.08;;;10.90;99.90;;;;;;5085414;28;20036;-84
2023/08/31 01:19:25;;;;;;;6.03;2.10;;;10.90;99.90;;;;;;5074849;28;20044;-83
2023/08/31 01:21:54;;;;;;;3.50;2.05;;;10.90;99.90;;;;;;5067296;28;20106;-84
2023/08/31 01:24:21;;;;;;;2.65;2.05;;;10.80;99.90;;;;;;5067552;28;20080;-83
2023/08/31 01:26:48;;;;;;;3.35;1.90;;;10.80;99.90;;;;;;5082583;28;20413;-84
2023/08/31 01:29:14;;;;;;;5.13;2.10;;;10.70;99.90;;;;;;5078071;28;20094;-83
2023/08/31 01:31:43;;;;;;;5.78;2.20;;;10.70;99.90;;;;;;5082827;28;20396;-83
2023/08/31 01:34:09;;;;;;;5.32;2.10;;;10.70;99.90;;;;;;5066888;28;20053;-83
2023/08/31 01:36:38;;;;;;;5.43;2.30;;;10.70;99.90;;;;;;5086633;28;20047;-83
2023/08/31 01:39:16;;;;;;;5.75;2.70;;;10.70;99.90;;;;;;5082920;28;20477;-83
2023/08/31 01:41:48;;;;;;;6.00;2.67;;;10.60;99.90;;;;;;5067357;28;20044;-83
2023/08/31 01:44:16;;;;;;;3.45;2.45;;;10.60;99.90;;;;;;5079515;28;20044;-83
2023/08/31 01:46:45;;;;;;;3.15;2.60;;;10.60;99.90;;;;;;5085767;28;20040;-83
2023/08/31 01:49:11;;;;;;;4.90;3.00;;;10.60;99.90;;;;;;5074497;28;20045;-84
2023/08/31 01:51:36;;;;;;;5.70;2.67;;;10.60;99.90;;;;;;5076975;28;20414;-83
2023/08/31 01:54:03;;;;;;;4.53;2.90;;;10.60;99.90;;;;;;5071141;28;20041;-83
2023/08/31 01:56:28;;;;;;;6.60;2.97;;;10.60;99.90;;;;;;5067133;28;20052;-84
2023/08/31 01:58:54;;;;;;;6.25;3.10;;;10.50;99.90;;;;;;5066522;28;20049;-83
2023/08/31 02:01:20;;;;;;;4.15;3.05;;;10.60;99.90;;;;;;5079020;28;20048;-83
2023/08/31 02:03:45;;;;;;;5.63;3.10;;;10.60;99.90;;;;;;5068568;28;20083;-83
2023/08/31 02:06:11;;;;;;;5.20;3.45;;;10.60;99.90;;;;;;5073217;28;20044;-83
2023/08/31 02:08:37;;;;;;;6.95;3.22;;;10.60;99.90;;;;;;5066827;28;20044;-83
2023/08/31 02:11:02;;;;;;;7.75;4.45;;;10.60;99.90;;;;;;5075827;28;20485;-83
2023/08/31 02:13:29;;;;;;;6.68;4.10;;;10.60;99.90;;;;;;5074412;28;20974;-83
2023/08/31 02:15:55;;;;;;;8.13;4.35;;;10.70;99.90;;;;;;5071391;28;20047;-83
2023/08/31 02:18:20;;;;;;;5.05;4.30;;;10.80;99.90;;;;;;5082702;28;20040;-83
2023/08/31 02:20:46;;;;;;;6.40;4.18;;;10.80;99.90;;;;;;5067879;28;20067;-83
2023/08/31 02:23:12;;;;;;;11.35;4.93;;;10.80;99.90;;;;;;5069304;28;20045;-83
2023/08/31 02:25:38;;;;;;;6.20;4.75;;;10.80;99.90;;;;;;5074104;28;20039;-83
2023/08/31 02:28:04;;;;;;;6.45;4.70;;;10.90;99.90;;;;;;5069186;28;20048;-83
2023/08/31 02:30:30;;;;;;;8.25;4.50;;;10.80;99.90;;;;;;5077450;28;20094;-83
2023/08/31 02:32:55;;;;;;;6.20;4.30;;;10.80;99.90;;;;;;5079891;28;20486;-83
2023/08/31 02:35:21;;;;;;;10.73;5.72;;;10.80;99.90;;;;;;5074349;28;20711;-83
2023/08/31 02:37:46;;;;;;;5.50;4.20;;;10.80;99.90;;;;;;5068696;28;20041;-83
2023/08/31 02:40:12;;;;;;;6.85;4.30;;;10.70;99.90;;;;;;5069234;28;20040;-83
2023/08/31 02:42:38;;;;;;;4.40;3.70;;;10.70;99.90;;;;;;5088844;28;20123;-83
2023/08/31 02:45:04;;;;;;;6.65;4.20;;;10.70;99.90;;;;;;5088031;28;20167;-83
2023/08/31 02:47:29;;;;;;;9.52;3.78;;;10.70;99.90;;;;;;5089722;28;20052;-83
2023/08/31 02:49:56;;;;;;;5.50;4.00;;;10.70;99.90;;;;;;5088455;28;20403;-83
2023/08/31 02:52:22;;;;;;;5.63;3.78;;;10.60;99.90;;;;;;5088387;28;20044;-82
2023/08/31 02:54:47;;;;;;;7.35;4.03;;;10.60;99.90;;;;;;5080816;28;20053;-84
2023/08/31 02:57:13;;;;;;;5.95;3.53;;;10.60;99.90;;;;;;5070479;28;20449;-83
2023/08/31 02:59:38;;;;;;;5.50;3.72;;;10.60;99.90;;;;;;5070236;28;20442;-83
2023/08/31 03:02:04;;;;;;;4.40;3.60;;;10.60;99.90;;;;;;5070101;28;20037;-83
2023/08/31 03:04:30;;;;;;;4.03;3.40;;;10.50;99.90;;;;;;5069490;28;20044;-83
2023/08/31 03:06:56;;;;;;;6.10;3.53;;;10.50;99.90;;;;;;5069013;28;20063;-82
2023/08/31 03:09:22;;;;;;;4.10;3.60;;;10.50;99.90;;;;;;5070360;28;20410;-83
2023/08/31 03:11:47;;;;;;;3.85;3.33;;;10.40;99.90;;;;;;5069070;28;20071;-83
2023/08/31 03:14:13;;;;;;;6.03;3.80;;;10.40;99.90;;;;;;5070005;28;20049;-83
2023/08/31 03:16:38;;;;;;;5.07;3.85;;;10.40;99.90;;;;;;5070016;28;20079;-83
2023/08/31 03:19:05;;;;;;;3.80;3.50;;;10.40;99.90;;;;;;5077676;28;20073;-83
2023/08/31 03:21:31;;;;;;;5.65;4.50;;;10.40;99.90;;;;;;5090532;28;20032;-83
2023/08/31 03:23:56;;;;;;;6.32;4.57;;;10.40;99.90;;;;;;5087377;28;20051;-83
2023/08/31 03:26:22;;;;;;;6.40;4.55;;;10.40;99.90;;;;;;5088207;28;20130;-83
2023/08/31 03:28:47;;;;;;;4.78;4.20;;;10.40;99.90;;;;;;5075014;28;20048;-84
2023/08/31 03:31:13;;;;;;;6.18;4.82;;;10.40;99.90;;;;;;5069569;28;20075;-83
2023/08/31 03:33:39;;;;;;;6.30;4.30;;;10.30;99.90;;;;;;5050844;28;20044;-83
2023/08/31 03:36:04;;;;;;;5.95;4.40;;;10.40;99.90;;;;;;5069917;28;20439;-83
2023/08/31 03:38:31;;;;;;;4.90;4.30;;;10.40;99.90;;;;;;5083206;28;20044;-82
2023/08/31 03:40:57;;;;;;;5.35;4.57;;;10.40;99.90;;;;;;5069556;28;20136;-84
2023/08/31 03:43:23;;;;;;;6.35;4.35;;;10.30;99.90;;;;;;5069120;28;20041;-83
2023/08/31 03:45:55;;;;;;;5.65;4.82;;;10.40;99.90;;;;;;5068975;28;20109;-84
2023/08/31 03:48:21;;;;;;;5.57;5.07;;;10.40;99.90;;;;;;5069541;28;20060;-83
2023/08/31 03:50:50;;;;;;;5.53;4.35;;;10.40;99.90;;;;;;5073971;28;20086;-83
2023/08/31 03:53:16;;;;;;;4.95;4.50;;;10.40;99.90;;;;;;5083112;28;20121;-83
2023/08/31 03:55:41;;;;;;;5.07;4.57;;;10.40;99.90;;;;;;5084386;28;20055;-83
2023/08/31 03:58:07;;;;;;;5.32;4.68;;;10.50;99.90;;;;;;5076734;28;20539;-83
2023/08/31 04:00:32;;;;;;;7.15;4.80;;;10.50;99.90;;;;;;5069263;28;20525;-83
2023/08/31 04:02:58;;;;;;;5.35;4.43;;;10.50;99.90;;;;;;5068752;28;20437;-83
2023/08/31 04:05:24;;;;;;;4.75;4.35;;;10.50;99.90;;;;;;5072774;28;20059;-83
2023/08/31 04:07:49;;;;;;;5.82;5.03;;;10.60;99.90;;;;;;5089496;28;20085;-83
2023/08/31 04:10:15;;;;;;;6.05;5.43;;;10.60;99.90;;;;;;5086895;28;20145;-83
2023/08/31 04:12:42;;;;;;;6.50;4.80;;;10.60;99.90;;;;;;5074593;28;20072;-83
2023/08/31 04:15:08;;;;;;;6.53;5.15;;;10.50;99.90;;;;;;5068488;28;20078;-83
2023/08/31 04:17:34;;;;;;;6.35;5.03;;;10.60;99.90;;;;;;5068576;28;20155;-83
2023/08/31 04:20:00;;;;;;;7.70;5.18;;;10.60;99.90;;;;;;5077094;28;20489;-84
2023/08/31 04:22:26;;;;;;;6.40;5.10;;;10.60;99.90;;;;;;5073800;28;20044;-83
2023/08/31 04:24:52;;;;;;;8.82;5.25;;;10.60;99.90;;;;;;5068510;28;20095;-83
2023/08/31 04:27:18;;;;;;;6.90;5.18;;;10.60;99.90;;;;;;5067630;28;20076;-82
2023/08/31 04:29:43;;;;;;;6.10;5.00;;;10.70;99.90;;;;;;5071968;28;20086;-83
2023/08/31 04:32:09;;;;;;;5.63;5.10;;;10.70;99.90;;;;;;5064990;28;20044;-83
2023/08/31 04:34:35;;;;;;;5.30;4.72;;;10.70;99.90;;;;;;5088241;28;20080;-83
2023/08/31 04:37:02;;;;;;;5.53;4.80;;;10.90;99.90;;;;;;5087444;28;20051;-83
2023/08/31 04:39:27;;;;;;;8.20;5.20;;;10.80;99.90;;;;;;5068415;28;20043;-83
2023/08/31 04:41:53;;;;;;;9.60;4.85;;;10.80;99.90;;;;;;5066928;28;20465;-83
2023/08/31 04:44:19;;;;;;;6.00;4.50;;;10.80;99.90;;;;;;5067492;28;20048;-83
2023/08/31 04:46:45;;;;;;;8.52;4.25;;;10.80;99.90;;;;;;5068174;28;20056;-83
2023/08/31 04:49:11;;;;;;;5.80;4.53;;;10.80;99.90;;;;;;5077526;28;20469;-83
2023/08/31 04:51:41;;;;;;;5.03;4.30;;;10.80;99.90;;;;;;5077367;28;20036;-84
2023/08/31 04:54:07;;;;;;;6.35;3.97;;;10.80;99.90;;;;;;5071094;28;20075;-83
2023/08/31 04:56:33;;;;;;;4.82;4.13;;;10.80;99.90;;;;;;5067047;28;20126;-83
2023/08/31 04:58:59;;;;;;;6.00;3.90;;;10.70;99.90;;;;;;5068011;28;20047;-83
2023/08/31 05:01:25;;;;;;;4.15;3.55;;;10.70;99.90;;;;;;5070954;28;20033;-83
2023/08/31 05:03:51;;;;;;;3.90;3.50;;;10.70;99.90;;;;;;5083404;28;20040;-83
2023/08/31 05:06:16;;;;;;;4.82;3.58;;;10.70;99.90;;;;;;5075137;28;20127;-83
2023/08/31 05:08:42;;;;;;;5.38;3.85;;;10.70;99.90;;;;;;5082997;28;20048;-82
2023/08/31 05:11:08;;;;;;;4.95;3.60;;;10.70;99.90;;;;;;5072820;28;20355;-83
2023/08/31 05:13:34;;;;;;;4.30;3.90;;;10.70;99.90;;;;;;5068778;28;20043;-83
2023/08/31 05:15:59;;;;;;;4.47;4.00;;;10.70;99.90;;;;;;5072346;28;20040;-83
2023/08/31 05:18:25;;;;;;;5.22;4.00;;;10.70;99.90;;;;;;5075549;28;20040;-84
2023/08/31 05:20:51;;;;;;;6.78;3.90;;;10.80;99.90;;;;;;5073166;28;20056;-82
2023/08/31 05:23:16;;;;;;;4.07;3.67;;;10.80;99.90;;;;;;5077506;28;20058;-84
2023/08/31 05:25:43;;;;;;;5.20;3.70;;;10.80;99.90;;;;;;5068214;28;20132;-84
2023/08/31 05:28:08;;;;;;;4.80;4.10;;;10.90;99.90;;;;;;5070645;28;20071;-84
2023/08/31 05:30:34;;;;;;;6.88;4.30;;;10.90;99.90;;;;;;5081631;28;20417;-83
2023/08/31 05:33:03;;;;;;;5.85;4.47;;;11.00;99.90;;;;;;5079715;28;20051;-83
2023/08/31 05:35:30;;;;;;;4.40;3.67;;;11.00;99.90;;;;;;5059092;28;20491;-83
2023/08/31 05:37:55;;;;;;;6.43;4.30;;;11.00;99.90;;;;;;5077306;28;20044;-83
2023/08/31 05:40:21;;;;;;;4.72;4.18;;;11.10;99.90;;;;;;5067854;28;20102;-83
2023/08/31 05:42:48;;;;;;;7.65;4.28;;;11.10;99.90;;;;;;5073030;28;20534;-83
2023/08/31 05:45:15;;;;;;;5.55;4.30;;;11.20;99.90;;;;;;5068594;28;20146;-84
2023/08/31 05:47:41;;;;;;;6.22;4.10;;;11.20;99.90;;;;;;5066783;28;20156;-83
2023/08/31 05:50:07;;;;;;;7.90;4.82;;;11.30;99.90;;;;;;5066818;28;20738;-83
2023/08/31 05:52:33;;;;;;;5.38;4.20;;;11.40;99.90;;;;;;5067741;28;20064;-82
2023/08/31 05:54:58;;;;;;;6.88;4.35;;;11.50;99.90;;;;;;5074728;28;20474;-83
2023/08/31 05:57:27;;;;;;;7.82;4.50;;;11.50;99.90;;;;;;5081345;28;20123;-84
2023/08/31 05:59:53;;;;;;;6.45;4.85;;;11.60;99.90;;;;;;5084850;28;20138;-84
2023/08/31 06:02:19;;;;;;;6.28;4.53;;;11.70;99.90;;;;;;5083563;28;20124;-84
2023/08/31 06:04:44;;;;;;;7.65;4.30;;;11.80;99.90;;;;;;5071275;28;20040;-83
2023/08/31 06:07:10;;;;;;;5.05;4.10;;;11.90;99.90;;;;;;5073956;28;20040;-84
2023/08/31 06:09:35;;;;;;;5.03;4.35;;;11.90;99.90;;;;;;5080558;28;20036;-84
2023/08/31 06:12:01;;;;;;;6.28;4.20;;;12.00;99.90;;;;;;5087241;28;20032;-84
2023/08/31 06:14:26;;;;;;;7.10;4.22;;;12.00;99.90;;;;;;5070843;28;20157;-83
2023/08/31 06:16:52;;;;;;;5.30;3.83;;;12.10;99.90;;;;;;5071932;28;20040;-84
2023/08/31 06:19:18;;;;;;;6.13;4.38;;;12.20;99.90;;;;;;5059716;28;20385;-83
2023/08/31 06:21:44;;;;;;;7.70;4.38;;;12.40;99.90;;;;;;5072573;28;20480;-84
2023/08/31 06:24:12;;;;;;;4.57;3.90;;;12.40;99.90;;;;;;5071659;28;20040;-83
2023/08/31 06:26:38;;;;;;;5.43;4.03;;;12.50;99.90;;;;;;5070510;28;20111;-83
2023/08/31 06:29:04;;;;;;;7.15;4.65;;;12.50;99.90;;;;;;5069917;28;20069;-83
2023/08/31 06:31:30;;;;;;;8.00;5.00;;;12.60;99.90;;;;;;5070881;28;20044;-83
2023/08/31 06:33:55;;;;;;;8.13;4.80;;;12.70;99.90;;;;;;5069819;28;20573;-83
2023/08/31 06:36:21;;;;;;;5.88;4.55;;;12.80;99.90;;;;;;5083968;28;20040;-84
2023/08/31 06:38:46;;;;;;;5.75;4.32;;;12.90;99.90;;;;;;5074027;28;20044;-82
2023/08/31 06:41:12;;;;;;;5.18;4.43;;;13.00;99.90;;;;;;5070828;28;20380;-84
2023/08/31 06:43:37;;;;;;;5.78;4.20;;;13.10;99.90;;;;;;5084961;28;20048;-84
2023/08/31 06:46:03;;;;;;;8.23;4.55;;;13.20;99.90;;;;;;5090135;28;20118;-83
2023/08/31 06:48:28;;;;;;;5.20;3.70;;;13.30;99.90;;;;;;5086705;28;20128;-83
2023/08/31 06:50:55;;;;;;;4.72;4.00;;;13.30;99.90;;;;;;5087700;28;20036;-84
2023/08/31 06:53:21;;;;;;;4.47;3.10;;;13.50;99.90;;;;;;5076701;28;20044;-83
2023/08/31 06:55:47;;;;;;;6.05;3.45;;;13.60;99.90;;;;;;5086510;28;20087;-83
2023/08/31 06:58:12;;;;;;;5.03;3.15;;;13.60;99.90;;;;;;5082794;28;20044;-84
2023/08/31 07:00:38;;;;;;;4.63;3.33;;;13.70;99.90;;;;;;5077814;28;20036;-84
2023/08/31 07:03:06;;;;;;;6.35;3.40;;;13.80;99.90;;;;;;5084007;28;20588;-84
2023/08/31 07:05:35;;;;;;;7.63;3.42;;;13.90;99.90;;;;;;5079351;28;20062;-84
2023/08/31 07:08:02;;;;;;;6.80;3.30;;;14.00;99.90;;;;;;5078784;28;20418;-83
2023/08/31 07:10:27;;;;;;;4.22;3.42;;;14.10;99.90;;;;;;5081055;28;20494;-83
2023/08/31 07:12:53;;;;;;;6.13;3.15;;;14.20;99.90;;;;;;5073437;28;20057;-84
2023/08/31 07:15:18;;;;;;;5.50;2.88;;;14.30;99.90;;;;;;5078612;28;20470;-83
2023/08/31 07:17:44;;;;;;;2.95;2.70;;;14.50;99.90;;;;;;5071081;28;20036;-83
2023/08/31 07:20:11;;;;;;;4.60;3.00;;;14.60;99.90;;;;;;5069964;28;20093;-84
2023/08/31 07:22:37;;;;;;;3.50;2.70;;;14.70;99.90;;;;;;5070394;28;20056;-84
2023/08/31 07:25:04;;;;;;;6.38;2.78;;;14.70;99.90;;;;;;5075515;28;20059;-83
2023/08/31 07:27:29;;;;;;;4.32;2.80;;;14.90;99.90;;;;;;5070308;28;20056;-82
2023/08/31 07:29:55;;;;;;;5.63;2.40;;;14.90;99.90;;;;;;5071211;28;20425;-83
2023/08/31 07:32:22;;;;;;;5.47;2.80;;;15.00;99.90;;;;;;5089486;28;20104;-83
2023/08/31 07:34:47;;;;;;;2.42;2.20;;;15.10;99.90;;;;;;5084384;28;20150;-83
2023/08/31 07:37:13;;;;;;;4.50;2.35;;;15.30;99.90;;;;;;5066908;28;20037;-83
2023/08/31 07:39:38;;;;;;;2.65;2.40;;;15.40;99.90;;;;;;5086130;28;20052;-83
2023/08/31 07:42:05;;;;;;;4.80;2.25;;;15.40;99.90;;;;;;5067121;28;20044;-84
2023/08/31 07:44:31;;;;;;;6.05;2.50;;;15.40;99.90;;;;;;5068255;28;20036;-83
2023/08/31 07:46:56;;;;;;;5.40;2.40;;;15.50;99.90;;;;;;5068169;28;20051;-84
2023/08/31 07:49:22;;;;;;;2.75;1.90;;;15.60;99.90;;;;;;5067120;28;20064;-84
2023/08/31 07:51:47;;;;;;;2.63;1.98;;;15.70;99.90;;;;;;5067466;28;20490;-83
2023/08/31 07:54:20;;;;;;;4.35;1.65;;;15.80;99.90;;;;;;5066435;28;20048;-83
2023/08/31 07:56:46;;;;;;;3.95;1.70;;;15.80;99.90;;;;;;5086382;28;20059;-83
2023/08/31 07:59:11;;;;;;;3.85;1.52;;;15.80;99.90;;;;;;5069418;28;20044;-83
2023/08/31 08:01:37;;;;;;;5.80;1.40;;;15.80;99.90;;;;;;5068969;28;20102;-84
2023/08/31 08:04:02;;;;;;;4.32;1.40;;;16.00;99.90;;;;;;5068713;28;20102;-83
2023/08/31 08:06:28;;;;;;;2.25;1.27;;;16.10;99.90;;;;;;5069528;28;20037;-84
2023/08/31 08:08:53;;;;;;;3.25;1.48;;;16.10;99.90;;;;;;5078334;28;20082;-83
2023/08/31 08:11:22;;;;;;;5.15;1.58;;;16.00;99.90;;;;;;5089531;28;20569;-84
2023/08/31 08:13:47;;;;;;;3.63;1.63;;;15.90;99.90;;;;;;5088232;28;20075;-84
2023/08/31 08:16:14;;;;;;;4.90;1.33;;;15.80;99.90;;;;;;5088164;28;20078;-85
2023/08/31 08:18:40;;;;;;;3.33;1.58;;;15.70;99.90;;;;;;5088126;28;20070;-84
2023/08/31 08:21:05;;;;;;;2.92;1.60;;;15.60;99.90;;;;;;5086888;28;20894;-84
2023/08/31 08:23:31;;;;;;;3.22;1.58;;;15.60;99.90;;;;;;5088509;28;20051;-84
2023/08/31 08:25:59;;;;;;;3.42;1.58;;;16.00;99.90;;;;;;5087708;28;20055;-84
2023/08/31 08:28:25;;;;;;;2.75;1.27;;;15.80;99.90;;;;;;5088726;28;20056;-85
2023/08/31 08:30:50;;;;;;;2.17;1.20;;;16.10;99.90;;;;;;5088132;28;20056;-84
2023/08/31 08:33:16;;;;;;;2.10;1.10;;;16.20;99.90;;;;;;5077929;28;20491;-83
2023/08/31 08:35:41;;;;;;;1.40;0.77;;;16.40;99.90;;;;;;5080801;28;20450;-84
2023/08/31 08:38:07;;;;;;;5.00;1.00;;;16.60;99.90;;;;;;5085409;28;20087;-83
2023/08/31 08:40:34;;;;;;;2.65;0.90;;;16.80;99.90;;;;;;5088389;28;20043;-83
2023/08/31 08:43:06;;;;;;;1.17;0.50;;;17.00;99.90;;;;;;5078371;28;20498;-83
2023/08/31 08:45:38;;;;;;;3.47;0.80;;;16.80;99.90;;;;;;5083540;28;20044;-84
2023/08/31 08:48:08;;;;;;;1.75;0.52;;;16.60;99.90;;;;;;5087654;28;20044;-82
2023/08/31 08:50:35;;;;;;;1.17;0.63;;;16.50;99.90;;;;;;5086702;28;20056;-83
2023/08/31 08:53:04;;;;;;;2.10;0.70;;;16.50;99.90;;;;;;5088473;28;20044;-83
2023/08/31 08:55:30;;;;;;;2.10;0.50;;;16.70;99.90;;;;;;5072076;28;20123;-83
2023/08/31 08:57:59;;;;;;;3.95;0.80;;;16.80;99.90;;;;;;5080261;28;20574;-85
2023/08/31 09:00:26;;;;;;;1.15;0.50;;;16.40;99.90;;;;;;5088889;28;20082;-84
2023/08/31 09:02:52;;;;;;;1.08;0.50;;;16.10;99.90;;;;;;5086597;28;20105;-84
2023/08/31 09:05:18;;;;;;;3.25;0.82;;;15.80;99.90;;;;;;5088388;28;20448;-83
2023/08/31 09:08:13;;;;;;;1.30;0.60;;;15.50;99.90;;;;;;5076536;28;20078;-83
2023/08/31 09:10:44;;;;;;;1.40;0.60;;;15.40;99.90;;;;;;5068057;28;20047;-84
2023/08/31 09:13:11;;;;;;;2.17;0.82;;;15.30;99.90;;;;;;5079486;28;20402;-83
2023/08/31 09:15:43;;;;;;;2.45;0.75;;;15.20;99.90;;;;;;5051285;28;20418;-83
2023/08/31 09:18:22;;;;;;;2.90;0.73;;;15.30;99.90;;;;;;5079974;28;20064;-82
2023/08/31 09:20:48;;;;;;;1.92;0.60;;;15.50;99.90;;;;;;5067762;28;20523;-83
2023/08/31 09:23:14;;;;;;;1.63;0.80;;;15.70;99.90;;;;;;5078833;28;20071;-84
2023/08/31 09:25:45;;;;;;;2.15;0.80;;;16.10;99.90;;;;;;5086420;28;20173;-84
2023/08/31 09:28:14;;;;;;;2.08;0.70;;;16.40;99.90;;;;;;5086913;28;20040;-84
2023/08/31 09:30:41;;;;;;;3.25;1.00;;;16.70;99.90;;;;;;5067205;28;20060;-85
2023/08/31 09:33:16;;;;;;;4.07;1.00;;;17.50;99.90;;;;;;5068723;28;20040;-84
2023/08/31 09:35:50;;;;;;;5.05;0.82;;;17.30;99.90;;;;;;5066182;28;20040;-85
2023/08/31 09:38:16;;;;;;;2.20;0.70;;;17.50;99.90;;;;;;5069011;28;20116;-84
2023/08/31 09:40:42;;;;;;;2.72;0.90;;;17.40;99.90;;;;;;5067062;28;20111;-85
2023/08/31 09:43:07;;;;;;;1.52;0.70;;;17.40;99.90;;;;;;5072972;28;20055;-83
2023/08/31 09:45:34;;;;;;;2.33;1.00;;;17.30;99.90;;;;;;5084094;28;20048;-83
2023/08/31 09:48:01;;;;;;;3.10;0.60;;;17.30;99.90;;;;;;5078617;28;20178;-83
2023/08/31 09:50:32;;;;;;;3.00;0.60;;;17.30;99.90;;;;;;5067573;28;20048;-84
2023/08/31 09:53:05;;;;;;;3.38;0.88;;;17.30;99.90;;;;;;5066386;28;20502;-83
2023/08/31 09:55:34;;;;;;;0.82;0.40;;;17.40;99.90;;;;;;5074278;28;20063;-84
2023/08/31 09:58:01;;;;;;;2.13;0.63;;;17.50;99.90;;;;;;5081590;28;20450;-82
2023/08/31 10:00:29;;;;;;;2.25;0.63;;;17.70;99.90;;;;;;5082793;28;20048;-82
2023/08/31 10:02:57;;;;;;;2.95;0.88;;;17.80;99.90;;;;;;5067319;28;20119;-81
2023/08/31 10:05:24;;;;;;;3.08;0.60;;;17.80;99.90;;;;;;5075860;28;20086;-82
2023/08/31 10:07:50;;;;;;;1.60;0.60;;;17.90;99.90;;;;;;5078210;28;20040;-82
2023/08/31 10:10:17;;;;;;;1.00;0.57;;;17.90;99.90;;;;;;5076913;28;20051;-82
2023/08/31 10:12:45;;;;;;;2.15;0.60;;;18.00;99.90;;;;;;5066721;28;20438;-82
2023/08/31 10:15:12;;;;;;;1.67;0.50;;;18.10;99.90;;;;;;5082884;28;20047;-83
2023/08/31 10:17:39;;;;;;;0.60;0.50;;;18.10;99.90;;;;;;5075264;28;20032;-84
2023/08/31 10:20:07;;;;;;;0.68;0.40;;;17.90;99.90;;;;;;5065554;28;20052;-84
2023/08/31 10:22:33;;;;;;;1.55;0.47;;;17.80;99.90;;;;;;5079316;28;20051;-84
2023/08/31 10:25:05;;;;;;;1.80;0.50;;;17.80;99.90;;;;;;5051677;28;20032;-83
2023/08/31 10:27:47;;;;;;;;;;;17.70;99.90;;;;;;5072808;28;20040;-83
2023/08/31 10:30:21;;;;;;;1.17;0.60;;;17.70;99.90;;;;;;5066812;28;19927;-83
2023/08/31 10:33:01;;;;;;;4.18;0.75;;;17.80;99.90;;;;;;5073727;28;20044;-83
2023/08/31 10:35:56;;;;;;;1.33;0.50;;;17.90;99.90;;;;;;5077908;28;20540;-83
2023/08/31 10:38:27;;;;;;;2.25;0.60;;;18.00;99.90;;;;;;5076160;28;20514;-85
2023/08/31 10:41:02;;;;;;;1.52;0.60;;;18.10;99.90;;;;;;5070828;28;20037;-83
2023/08/31 10:43:42;;;;;;;2.47;0.70;;;18.00;99.90;;;;;;5070745;28;20182;-82
2023/08/31 10:46:27;;;;;;;1.90;0.77;;;17.90;99.90;;;;;;5071834;28;20406;-82
2023/08/31 10:48:55;;;;;;;1.50;0.60;;;17.40;99.90;;;;;;5081497;28;20052;-82
2023/08/31 10:51:28;;;;;;;0.95;0.50;;;17.30;99.90;;;;;;5077621;28;20086;-82
2023/08/31 10:54:20;;;;;;;1.05;0.55;;;17.30;99.90;;;;;;5070294;28;20037;-82
2023/08/31 10:57:00;;;;;;;1.77;0.50;;;17.50;99.90;;;;;;5071021;28;20123;-82
2023/08/31 10:59:26;;;;;;;1.85;0.52;;;17.70;99.90;;;;;;5083644;28;20051;-83
2023/08/31 11:01:56;;;;;;;3.38;0.57;;;17.80;99.90;;;;;;5089577;28;20093;-82
2023/08/31 11:04:27;;;;;;;1.92;0.40;;;17.90;99.90;;;;;;5090719;28;20052;-82
2023/08/31 11:07:18;;;;;;;0.88;0.40;;;18.10;99.90;;;;;;5071081;28;20043;-82
2023/08/31 11:09:45;;;;;;;2.08;0.60;;;18.10;99.90;;;;;;5068663;28;20047;-83
2023/08/31 11:12:11;;;;;;;1.08;0.60;;;18.20;99.90;;;;;;5070268;28;20049;-82
2023/08/31 11:14:37;;;;;;;2.38;0.55;;;18.20;99.90;;;;;;5086023;28;20047;-82
2023/08/31 11:17:05;;;;;;;1.10;0.60;;;18.20;99.90;;;;;;5090208;28;20089;-83
2023/08/31 11:19:35;;;;;;;2.00;0.60;;;18.30;99.90;;;;;;5086754;28;20043;-81
2023/08/31 11:22:02;;;;;;;1.90;0.60;;;18.50;99.90;;;;;;5069717;28;20053;-84
2023/08/31 11:24:31;;;;;;;1.48;0.55;;;18.70;99.90;;;;;;5080062;28;20070;-81
2023/08/31 11:26:59;;;;;;;4.10;0.70;;;18.80;99.90;;;;;;5090536;28;20087;-82
2023/08/31 11:29:25;;;;;;;1.83;0.55;;;19.00;99.90;;;;;;5090349;28;20119;-84
2023/08/31 11:31:50;;;;;;;2.65;0.68;;;19.10;99.90;;;;;;5089766;28;20504;-83
2023/08/31 11:34:17;;;;;;;1.23;0.77;;;19.20;99.90;;;;;;5088396;28;20412;-82
2023/08/31 11:36:45;;;;;;;2.30;0.70;;;19.30;99.90;;;;;;5074987;28;20045;-83
2023/08/31 11:39:11;;;;;;;3.30;0.55;;;19.50;99.90;;;;;;5087699;28;20406;-83
2023/08/31 11:41:41;;;;;;;1.27;0.60;;;19.70;99.90;;;;;;5072575;28;20036;-85
2023/08/31 11:44:12;;;;;;;2.88;0.80;;;19.80;99.90;;;;;;5067621;28;20054;-82
2023/08/31 11:46:39;;;;;;;2.90;0.88;;;19.80;99.90;;;;;;5069971;28;20044;-83
2023/08/31 11:49:06;;;;;;;3.08;0.80;;;19.70;99.90;;;;;;5073628;28;20136;-84
2023/08/31 11:51:34;;;;;;;1.20;0.40;;;19.70;99.90;;;;;;5068039;28;20553;-83
2023/08/31 11:54:02;;;;;;;2.20;0.88;;;19.80;99.90;;;;;;5067773;28;20798;-84
2023/08/31 11:56:38;;;;;;;3.42;0.80;;;19.60;99.90;;;;;;5069038;28;20041;-84
2023/08/31 11:59:08;;;;;;;1.80;0.77;;;19.60;99.90;;;;;;5050974;28;20037;-83
2023/08/31 12:01:38;;;;;;;2.00;0.60;;;19.50;99.90;;;;;;5070197;28;20807;-84
2023/08/31 12:04:29;;;;;;;2.33;0.65;;;19.50;99.90;;;;;;5068265;28;20044;-83
2023/08/31 12:07:06;;;;;;;1.83;0.75;;;19.40;99.90;;;;;;5066772;28;20063;-84
2023/08/31 12:09:32;;;;;;;2.45;0.68;;;19.30;99.90;;;;;;5078011;28;20078;-84
2023/08/31 12:11:58;;;;;;;2.05;0.68;;;19.20;99.90;;;;;;5086267;28;20145;-83
2023/08/31 12:14:26;;;;;;;1.75;0.68;;;19.30;99.90;;;;;;5069485;28;20055;-84
2023/08/31 12:16:59;;;;;;;1.52;0.70;;;19.30;99.90;;;;;;5083517;28;20040;-85
2023/08/31 12:19:28;;;;;;;2.55;0.70;;;19.30;99.90;;;;;;5068568;28;20040;-83
2023/08/31 12:21:54;;;;;;;1.58;0.60;;;19.40;99.90;;;;;;5068593;28;20123;-83
2023/08/31 12:24:22;;;;;;;2.95;0.82;;;19.30;99.90;;;;;;5067654;28;20197;-86
2023/08/31 12:26:47;;;;;;;1.48;0.60;;;19.40;99.90;;;;;;5068679;28;20089;-85
2023/08/31 12:29:13;;;;;;;2.78;0.85;;;19.40;99.90;;;;;;5070496;28;20036;-84
2023/08/31 12:31:39;;;;;;;3.67;0.70;;;19.50;99.90;;;;;;5087819;28;20052;-84
2023/08/31 12:34:06;;;;;;;3.85;0.90;;;19.60;99.90;;;;;;5086545;28;20040;-84
2023/08/31 12:36:37;;;;;;;2.78;0.70;;;19.70;99.90;;;;;;5089292;28;20048;-85
2023/08/31 12:39:06;;;;;;;1.93;0.63;;;19.60;99.90;;;;;;5089044;28;20044;-86
2023/08/31 12:41:32;;;;;;;1.50;0.70;;;19.60;99.90;;;;;;5070294;28;20457;-84
2023/08/31 12:43:58;;;;;;;1.85;0.88;;;19.70;99.90;;;;;;5068352;28;20055;-84
2023/08/31 12:46:24;;;;;;;2.08;0.90;;;19.90;99.90;;;;;;5068363;28;20066;-84
2023/08/31 12:48:50;;;;;;;2.25;0.93;;;20.10;99.90;;;;;;5049798;28;20057;-83
2023/08/31 12:51:19;;;;;;;2.08;0.90;;;20.30;99.90;;;;;;5078913;28;20059;-84